sensor_id;sensor_type;location;lat;lon;timestamp;P1;durP1;ratioP1;P2;durP2;ratioP2
50585;SDS011;36542;51.700;8.846;2023-02-23T00:01:46;39.30;;;27.30;;
50585;SDS011;36542;51.700;8.846;2023-02-23T00:04:11;39.13;;;27.77;;
50585;SDS011;36542;51.700;8.846;2023-02-23T00:06:37;42.67;;;29.17;;
50585;SDS011;36542;51.700;8.846;2023-02-23T00:09:03;51.97;;;32.80;;
50585;SDS011;36542;51.700;8.846;2023-02-23T00:11:39;49.57;;;32.53;;
50585;SDS011;36542;51.700;8.846;2023-02-23T00:14:05;43.17;;;30.47;;
50585;SDS011;36542;51.700;8.846;2023-02-23T00:16:32;41.13;;;29.70;;
50585;SDS011;36542;51.700;8.846;2023-02-23T00:18:57;42.63;;;29.57;;
50585;SDS011;36542;51.700;8.846;2023-02-23T00:21:27;42.87;;;30.20;;
50585;SDS011;36542;51.700;8.846;2023-02-23T00:23:55;38.63;;;29.43;;
50585;SDS011;36542;51.700;8.846;2023-02-23T00:26:26;44.60;;;32.50;;
50585;SDS011;36542;51.700;8.846;2023-02-23T00:28:55;55.47;;;37.33;;
50585;SDS011;36542;51.700;8.846;2023-02-23T00:31:22;59.77;;;39.87;;
50585;SDS011;36542;51.700;8.846;2023-02-23T00:33:50;59.93;;;39.87;;
50585;SDS011;36542;51.700;8.846;2023-02-23T00:36:18;60.67;;;41.13;;
50585;SDS011;36542;51.700;8.846;2023-02-23T00:38:45;60.57;;;39.77;;
50585;SDS011;36542;51.700;8.846;2023-02-23T00:41:12;60.17;;;41.17;;
50585;SDS011;36542;51.700;8.846;2023-02-23T00:43:44;58.70;;;39.90;;
50585;SDS011;36542;51.700;8.846;2023-02-23T00:46:12;49.73;;;37.27;;
50585;SDS011;36542;51.700;8.846;2023-02-23T00:48:45;57.23;;;38.77;;
50585;SDS011;36542;51.700;8.846;2023-02-23T00:51:12;57.77;;;39.77;;
50585;SDS011;36542;51.700;8.846;2023-02-23T00:53:39;59.27;;;39.00;;
50585;SDS011;36542;51.700;8.846;2023-02-23T00:56:07;60.60;;;39.50;;
50585;SDS011;36542;51.700;8.846;2023-02-23T00:58:33;60.23;;;40.50;;
50585;SDS011;36542;51.700;8.846;2023-02-23T01:00:59;57.47;;;39.13;;
50585;SDS011;36542;51.700;8.846;2023-02-23T01:03:25;58.17;;;38.43;;
50585;SDS011;36542;51.700;8.846;2023-02-23T01:05:51;58.27;;;40.43;;
50585;SDS011;36542;51.700;8.846;2023-02-23T01:08:19;54.97;;;38.63;;
50585;SDS011;36542;51.700;8.846;2023-02-23T01:10:44;65.87;;;41.17;;
50585;SDS011;36542;51.700;8.846;2023-02-23T01:13:16;56.70;;;39.43;;
50585;SDS011;36542;51.700;8.846;2023-02-23T01:15:42;59.87;;;40.30;;
50585;SDS011;36542;51.700;8.846;2023-02-23T01:18:12;58.53;;;41.07;;
50585;SDS011;36542;51.700;8.846;2023-02-23T01:20:39;64.50;;;42.50;;
50585;SDS011;36542;51.700;8.846;2023-02-23T01:23:08;59.93;;;42.33;;
50585;SDS011;36542;51.700;8.846;2023-02-23T01:25:36;64.40;;;42.90;;
50585;SDS011;36542;51.700;8.846;2023-02-23T01:28:02;65.77;;;44.30;;
50585;SDS011;36542;51.700;8.846;2023-02-23T01:30:27;68.00;;;43.97;;
50585;SDS011;36542;51.700;8.846;2023-02-23T01:32:53;62.23;;;41.87;;
50585;SDS011;36542;51.700;8.846;2023-02-23T01:35:19;70.57;;;45.80;;
50585;SDS011;36542;51.700;8.846;2023-02-23T01:37:44;68.57;;;46.43;;
50585;SDS011;36542;51.700;8.846;2023-02-23T01:40:17;65.17;;;43.10;;
50585;SDS011;36542;51.700;8.846;2023-02-23T01:42:54;57.63;;;40.43;;
50585;SDS011;36542;51.700;8.846;2023-02-23T01:45:24;58.30;;;40.67;;
50585;SDS011;36542;51.700;8.846;2023-02-23T01:48:23;61.57;;;41.10;;
50585;SDS011;36542;51.700;8.846;2023-02-23T01:51:01;59.87;;;41.30;;
50585;SDS011;36542;51.700;8.846;2023-02-23T01:53:32;64.07;;;42.07;;
50585;SDS011;36542;51.700;8.846;2023-02-23T01:56:02;63.60;;;42.60;;
50585;SDS011;36542;51.700;8.846;2023-02-23T01:58:35;60.53;;;41.27;;
50585;SDS011;36542;51.700;8.846;2023-02-23T02:01:07;64.77;;;44.53;;
50585;SDS011;36542;51.700;8.846;2023-02-23T02:03:44;63.90;;;43.80;;
50585;SDS011;36542;51.700;8.846;2023-02-23T02:06:12;66.73;;;45.70;;
50585;SDS011;36542;51.700;8.846;2023-02-23T02:08:42;63.60;;;44.57;;
50585;SDS011;36542;51.700;8.846;2023-02-23T02:11:12;66.90;;;45.37;;
50585;SDS011;36542;51.700;8.846;2023-02-23T02:13:58;66.50;;;47.47;;
50585;SDS011;36542;51.700;8.846;2023-02-23T02:19:30;69.43;;;47.27;;
50585;SDS011;36542;51.700;8.846;2023-02-23T02:24:51;70.93;;;47.30;;
50585;SDS011;36542;51.700;8.846;2023-02-23T02:27:40;71.97;;;48.33;;
50585;SDS011;36542;51.700;8.846;2023-02-23T02:36:18;72.40;;;50.57;;
50585;SDS011;36542;51.700;8.846;2023-02-23T02:39:04;77.23;;;49.87;;
50585;SDS011;36542;51.700;8.846;2023-02-23T02:41:48;76.53;;;50.27;;
50585;SDS011;36542;51.700;8.846;2023-02-23T02:44:23;75.73;;;49.80;;
50585;SDS011;36542;51.700;8.846;2023-02-23T02:47:04;78.70;;;51.13;;
50585;SDS011;36542;51.700;8.846;2023-02-23T02:52:22;75.93;;;53.03;;
50585;SDS011;36542;51.700;8.846;2023-02-23T02:54:52;82.43;;;52.87;;
50585;SDS011;36542;51.700;8.846;2023-02-23T02:57:25;78.53;;;51.63;;
50585;SDS011;36542;51.700;8.846;2023-02-23T02:59:52;86.27;;;54.20;;
50585;SDS011;36542;51.700;8.846;2023-02-23T03:02:37;81.63;;;54.33;;
50585;SDS011;36542;51.700;8.846;2023-02-23T03:05:23;84.73;;;53.97;;
50585;SDS011;36542;51.700;8.846;2023-02-23T03:11:13;80.83;;;52.97;;
50585;SDS011;36542;51.700;8.846;2023-02-23T03:14:16;82.03;;;54.87;;
50585;SDS011;36542;51.700;8.846;2023-02-23T03:17:18;80.93;;;52.93;;
50585;SDS011;36542;51.700;8.846;2023-02-23T03:26:59;89.63;;;58.50;;
50585;SDS011;36542;51.700;8.846;2023-02-23T03:32:22;111.07;;;67.10;;
50585;SDS011;36542;51.700;8.846;2023-02-23T03:35:14;129.20;;;71.77;;
50585;SDS011;36542;51.700;8.846;2023-02-23T03:38:21;123.97;;;71.53;;
50585;SDS011;36542;51.700;8.846;2023-02-23T03:41:12;131.60;;;73.10;;
50585;SDS011;36542;51.700;8.846;2023-02-23T03:44:01;129.10;;;74.90;;
50585;SDS011;36542;51.700;8.846;2023-02-23T03:46:48;126.17;;;75.90;;
50585;SDS011;36542;51.700;8.846;2023-02-23T03:49:35;137.40;;;80.67;;
50585;SDS011;36542;51.700;8.846;2023-02-23T03:52:24;122.73;;;73.43;;
50585;SDS011;36542;51.700;8.846;2023-02-23T03:55:16;135.30;;;76.97;;
50585;SDS011;36542;51.700;8.846;2023-02-23T03:58:05;142.03;;;79.83;;
50585;SDS011;36542;51.700;8.846;2023-02-23T04:00:55;141.80;;;81.67;;
50585;SDS011;36542;51.700;8.846;2023-02-23T04:03:43;139.47;;;76.17;;
50585;SDS011;36542;51.700;8.846;2023-02-23T04:06:32;153.30;;;83.23;;
50585;SDS011;36542;51.700;8.846;2023-02-23T04:09:22;155.27;;;84.30;;
50585;SDS011;36542;51.700;8.846;2023-02-23T04:17:56;171.67;;;89.57;;
50585;SDS011;36542;51.700;8.846;2023-02-23T04:20:22;158.80;;;88.03;;
50585;SDS011;36542;51.700;8.846;2023-02-23T04:22:49;188.33;;;94.37;;
50585;SDS011;36542;51.700;8.846;2023-02-23T04:25:14;197.53;;;96.47;;
50585;SDS011;36542;51.700;8.846;2023-02-23T04:27:40;175.50;;;93.63;;
50585;SDS011;36542;51.700;8.846;2023-02-23T04:30:06;193.03;;;96.03;;
50585;SDS011;36542;51.700;8.846;2023-02-23T04:32:35;142.33;;;79.60;;
50585;SDS011;36542;51.700;8.846;2023-02-23T04:35:01;127.77;;;74.23;;
50585;SDS011;36542;51.700;8.846;2023-02-23T04:37:26;103.93;;;63.93;;
50585;SDS011;36542;51.700;8.846;2023-02-23T04:39:52;92.90;;;62.00;;
50585;SDS011;36542;51.700;8.846;2023-02-23T04:42:18;104.73;;;60.90;;
50585;SDS011;36542;51.700;8.846;2023-02-23T04:44:44;97.40;;;59.83;;
50585;SDS011;36542;51.700;8.846;2023-02-23T04:47:10;99.03;;;62.00;;
50585;SDS011;36542;51.700;8.846;2023-02-23T04:49:36;113.90;;;67.63;;
50585;SDS011;36542;51.700;8.846;2023-02-23T04:52:02;112.97;;;68.80;;
50585;SDS011;36542;51.700;8.846;2023-02-23T04:54:27;123.57;;;72.50;;
50585;SDS011;36542;51.700;8.846;2023-02-23T04:56:53;128.37;;;74.00;;
50585;SDS011;36542;51.700;8.846;2023-02-23T04:59:19;144.43;;;79.10;;
50585;SDS011;36542;51.700;8.846;2023-02-23T05:01:44;128.80;;;73.50;;
50585;SDS011;36542;51.700;8.846;2023-02-23T05:04:09;144.30;;;80.47;;
50585;SDS011;36542;51.700;8.846;2023-02-23T05:06:35;130.93;;;75.30;;
50585;SDS011;36542;51.700;8.846;2023-02-23T05:09:01;127.63;;;73.67;;
50585;SDS011;36542;51.700;8.846;2023-02-23T05:11:27;136.37;;;76.10;;
50585;SDS011;36542;51.700;8.846;2023-02-23T05:13:53;127.63;;;76.40;;
50585;SDS011;36542;51.700;8.846;2023-02-23T05:16:19;147.17;;;78.60;;
50585;SDS011;36542;51.700;8.846;2023-02-23T05:18:44;149.50;;;78.90;;
50585;SDS011;36542;51.700;8.846;2023-02-23T05:21:11;145.47;;;82.80;;
50585;SDS011;36542;51.700;8.846;2023-02-23T05:23:37;151.47;;;82.33;;
50585;SDS011;36542;51.700;8.846;2023-02-23T05:26:04;149.77;;;83.70;;
50585;SDS011;36542;51.700;8.846;2023-02-23T05:28:35;150.90;;;84.27;;
50585;SDS011;36542;51.700;8.846;2023-02-23T05:31:02;147.60;;;83.37;;
50585;SDS011;36542;51.700;8.846;2023-02-23T05:33:29;158.80;;;84.97;;
50585;SDS011;36542;51.700;8.846;2023-02-23T05:35:55;164.10;;;89.77;;
50585;SDS011;36542;51.700;8.846;2023-02-23T05:38:21;173.40;;;88.67;;
50585;SDS011;36542;51.700;8.846;2023-02-23T05:40:47;165.67;;;90.80;;
50585;SDS011;36542;51.700;8.846;2023-02-23T05:43:12;176.17;;;91.33;;
50585;SDS011;36542;51.700;8.846;2023-02-23T05:45:39;185.23;;;93.50;;
50585;SDS011;36542;51.700;8.846;2023-02-23T05:48:08;194.83;;;96.07;;
50585;SDS011;36542;51.700;8.846;2023-02-23T05:50:35;186.47;;;97.67;;
50585;SDS011;36542;51.700;8.846;2023-02-23T05:53:00;188.90;;;95.97;;
50585;SDS011;36542;51.700;8.846;2023-02-23T05:55:26;196.27;;;99.57;;
50585;SDS011;36542;51.700;8.846;2023-02-23T05:57:52;185.50;;;97.60;;
50585;SDS011;36542;51.700;8.846;2023-02-23T06:00:18;203.00;;;98.90;;
50585;SDS011;36542;51.700;8.846;2023-02-23T06:02:44;195.13;;;98.60;;
50585;SDS011;36542;51.700;8.846;2023-02-23T06:05:10;214.03;;;101.30;;
50585;SDS011;36542;51.700;8.846;2023-02-23T06:07:36;202.17;;;101.00;;
50585;SDS011;36542;51.700;8.846;2023-02-23T06:10:02;197.47;;;102.80;;
50585;SDS011;36542;51.700;8.846;2023-02-23T06:12:28;219.40;;;106.10;;
50585;SDS011;36542;51.700;8.846;2023-02-23T06:14:54;218.23;;;104.73;;
50585;SDS011;36542;51.700;8.846;2023-02-23T06:17:19;202.43;;;103.23;;
50585;SDS011;36542;51.700;8.846;2023-02-23T06:19:44;185.47;;;95.57;;
50585;SDS011;36542;51.700;8.846;2023-02-23T06:22:10;196.27;;;91.63;;
50585;SDS011;36542;51.700;8.846;2023-02-23T06:24:36;196.27;;;89.53;;
50585;SDS011;36542;51.700;8.846;2023-02-23T06:27:01;181.97;;;94.37;;
50585;SDS011;36542;51.700;8.846;2023-02-23T06:29:28;184.17;;;95.00;;
50585;SDS011;36542;51.700;8.846;2023-02-23T06:31:53;204.10;;;97.40;;
50585;SDS011;36542;51.700;8.846;2023-02-23T06:34:19;187.83;;;94.20;;
50585;SDS011;36542;51.700;8.846;2023-02-23T06:36:44;205.73;;;97.30;;
50585;SDS011;36542;51.700;8.846;2023-02-23T06:39:10;208.43;;;99.20;;
50585;SDS011;36542;51.700;8.846;2023-02-23T06:41:36;205.33;;;99.23;;
50585;SDS011;36542;51.700;8.846;2023-02-23T06:44:02;205.60;;;97.67;;
50585;SDS011;36542;51.700;8.846;2023-02-23T06:46:27;220.90;;;102.23;;
50585;SDS011;36542;51.700;8.846;2023-02-23T06:48:53;197.03;;;96.53;;
50585;SDS011;36542;51.700;8.846;2023-02-23T06:51:23;201.60;;;99.23;;
50585;SDS011;36542;51.700;8.846;2023-02-23T06:53:49;224.63;;;106.03;;
50585;SDS011;36542;51.700;8.846;2023-02-23T06:56:16;222.50;;;105.70;;
50585;SDS011;36542;51.700;8.846;2023-02-23T06:58:41;245.20;;;110.67;;
50585;SDS011;36542;51.700;8.846;2023-02-23T07:01:07;225.73;;;106.50;;
50585;SDS011;36542;51.700;8.846;2023-02-23T07:03:34;232.00;;;106.43;;
50585;SDS011;36542;51.700;8.846;2023-02-23T07:05:59;229.10;;;107.43;;
50585;SDS011;36542;51.700;8.846;2023-02-23T07:08:25;266.63;;;110.63;;
50585;SDS011;36542;51.700;8.846;2023-02-23T07:10:50;258.57;;;111.40;;
50585;SDS011;36542;51.700;8.846;2023-02-23T07:13:16;294.77;;;111.87;;
50585;SDS011;36542;51.700;8.846;2023-02-23T07:15:41;322.37;;;126.23;;
50585;SDS011;36542;51.700;8.846;2023-02-23T07:18:08;323.77;;;125.37;;
50585;SDS011;36542;51.700;8.846;2023-02-23T07:20:34;456.50;;;141.30;;
50585;SDS011;36542;51.700;8.846;2023-02-23T07:22:59;455.73;;;144.97;;
50585;SDS011;36542;51.700;8.846;2023-02-23T07:25:26;373.00;;;142.57;;
50585;SDS011;36542;51.700;8.846;2023-02-23T07:27:53;375.97;;;139.83;;
50585;SDS011;36542;51.700;8.846;2023-02-23T07:30:19;416.07;;;147.87;;
50585;SDS011;36542;51.700;8.846;2023-02-23T07:32:48;401.90;;;142.37;;
50585;SDS011;36542;51.700;8.846;2023-02-23T07:35:14;342.33;;;133.77;;
50585;SDS011;36542;51.700;8.846;2023-02-23T07:37:40;415.67;;;146.93;;
50585;SDS011;36542;51.700;8.846;2023-02-23T07:40:06;377.63;;;138.80;;
50585;SDS011;36542;51.700;8.846;2023-02-23T07:42:32;409.77;;;150.57;;
50585;SDS011;36542;51.700;8.846;2023-02-23T07:44:57;281.47;;;124.27;;
50585;SDS011;36542;51.700;8.846;2023-02-23T07:47:23;353.40;;;139.20;;
50585;SDS011;36542;51.700;8.846;2023-02-23T07:49:54;272.57;;;122.87;;
50585;SDS011;36542;51.700;8.846;2023-02-23T07:52:23;318.33;;;131.30;;
50585;SDS011;36542;51.700;8.846;2023-02-23T07:54:49;285.73;;;127.07;;
50585;SDS011;36542;51.700;8.846;2023-02-23T07:57:15;384.73;;;137.03;;
50585;SDS011;36542;51.700;8.846;2023-02-23T07:59:40;359.03;;;137.77;;
50585;SDS011;36542;51.700;8.846;2023-02-23T08:02:06;307.33;;;131.13;;
50585;SDS011;36542;51.700;8.846;2023-02-23T08:04:31;261.43;;;122.67;;
50585;SDS011;36542;51.700;8.846;2023-02-23T08:06:57;319.23;;;138.37;;
50585;SDS011;36542;51.700;8.846;2023-02-23T08:09:23;333.70;;;141.10;;
50585;SDS011;36542;51.700;8.846;2023-02-23T08:11:48;259.00;;;132.23;;
50585;SDS011;36542;51.700;8.846;2023-02-23T08:14:14;221.13;;;115.57;;
50585;SDS011;36542;51.700;8.846;2023-02-23T08:16:39;288.20;;;124.40;;
50585;SDS011;36542;51.700;8.846;2023-02-23T08:19:05;212.77;;;108.67;;
50585;SDS011;36542;51.700;8.846;2023-02-23T08:21:31;226.27;;;115.20;;
50585;SDS011;36542;51.700;8.846;2023-02-23T08:23:56;233.17;;;114.93;;
50585;SDS011;36542;51.700;8.846;2023-02-23T08:26:22;222.33;;;112.07;;
50585;SDS011;36542;51.700;8.846;2023-02-23T08:28:49;230.70;;;119.40;;
50585;SDS011;36542;51.700;8.846;2023-02-23T08:31:15;206.80;;;109.17;;
50585;SDS011;36542;51.700;8.846;2023-02-23T08:33:44;175.90;;;98.23;;
50585;SDS011;36542;51.700;8.846;2023-02-23T08:36:10;182.77;;;98.07;;
50585;SDS011;36542;51.700;8.846;2023-02-23T08:38:35;177.60;;;95.83;;
50585;SDS011;36542;51.700;8.846;2023-02-23T08:41:01;188.47;;;100.50;;
50585;SDS011;36542;51.700;8.846;2023-02-23T08:43:28;177.57;;;98.87;;
50585;SDS011;36542;51.700;8.846;2023-02-23T08:45:53;210.33;;;108.30;;
50585;SDS011;36542;51.700;8.846;2023-02-23T08:48:19;201.53;;;107.30;;
50585;SDS011;36542;51.700;8.846;2023-02-23T08:50:46;221.80;;;110.67;;
50585;SDS011;36542;51.700;8.846;2023-02-23T08:53:13;185.80;;;104.00;;
50585;SDS011;36542;51.700;8.846;2023-02-23T08:55:39;194.03;;;105.43;;
50585;SDS011;36542;51.700;8.846;2023-02-23T08:58:06;144.80;;;85.30;;
50585;SDS011;36542;51.700;8.846;2023-02-23T09:00:34;139.13;;;86.10;;
50585;SDS011;36542;51.700;8.846;2023-02-23T09:03:03;139.13;;;82.90;;
50585;SDS011;36542;51.700;8.846;2023-02-23T09:05:30;137.03;;;80.77;;
50585;SDS011;36542;51.700;8.846;2023-02-23T09:07:57;147.93;;;87.57;;
50585;SDS011;36542;51.700;8.846;2023-02-23T09:10:22;133.33;;;80.93;;
50585;SDS011;36542;51.700;8.846;2023-02-23T09:12:51;139.23;;;84.03;;
50585;SDS011;36542;51.700;8.846;2023-02-23T09:15:17;145.00;;;89.40;;
50585;SDS011;36542;51.700;8.846;2023-02-23T09:17:42;151.37;;;89.67;;
50585;SDS011;36542;51.700;8.846;2023-02-23T09:20:10;142.47;;;86.63;;
50585;SDS011;36542;51.700;8.846;2023-02-23T09:22:37;148.57;;;89.50;;
50585;SDS011;36542;51.700;8.846;2023-02-23T09:25:13;152.10;;;90.50;;
50585;SDS011;36542;51.700;8.846;2023-02-23T09:27:43;144.70;;;90.63;;
50585;SDS011;36542;51.700;8.846;2023-02-23T09:30:10;154.20;;;91.07;;
50585;SDS011;36542;51.700;8.846;2023-02-23T09:32:45;167.73;;;99.43;;
50585;SDS011;36542;51.700;8.846;2023-02-23T09:35:12;169.47;;;99.03;;
50585;SDS011;36542;51.700;8.846;2023-02-23T09:37:41;179.60;;;102.07;;
50585;SDS011;36542;51.700;8.846;2023-02-23T09:40:12;185.37;;;102.20;;
50585;SDS011;36542;51.700;8.846;2023-02-23T09:42:45;197.27;;;106.03;;
50585;SDS011;36542;51.700;8.846;2023-02-23T09:45:28;212.47;;;108.93;;
50585;SDS011;36542;51.700;8.846;2023-02-23T09:50:34;256.47;;;119.13;;
50585;SDS011;36542;51.700;8.846;2023-02-23T09:53:03;212.70;;;112.20;;
50585;SDS011;36542;51.700;8.846;2023-02-23T09:55:32;231.70;;;116.37;;
50585;SDS011;36542;51.700;8.846;2023-02-23T09:58:01;261.57;;;125.67;;
50585;SDS011;36542;51.700;8.846;2023-02-23T10:00:35;246.57;;;120.43;;
50585;SDS011;36542;51.700;8.846;2023-02-23T10:03:27;262.23;;;125.70;;
50585;SDS011;36542;51.700;8.846;2023-02-23T10:05:55;276.90;;;129.47;;
50585;SDS011;36542;51.700;8.846;2023-02-23T10:08:38;311.90;;;134.93;;
50585;SDS011;36542;51.700;8.846;2023-02-23T10:14:01;323.50;;;136.63;;
50585;SDS011;36542;51.700;8.846;2023-02-23T10:19:35;399.87;;;145.20;;
50585;SDS011;36542;51.700;8.846;2023-02-23T10:22:13;373.27;;;144.40;;
50585;SDS011;36542;51.700;8.846;2023-02-23T10:24:41;473.43;;;160.13;;
50585;SDS011;36542;51.700;8.846;2023-02-23T10:27:16;456.37;;;163.17;;
50585;SDS011;36542;51.700;8.846;2023-02-23T10:32:23;477.93;;;169.20;;
50585;SDS011;36542;51.700;8.846;2023-02-23T10:34:53;433.47;;;165.27;;
50585;SDS011;36542;51.700;8.846;2023-02-23T10:37:20;471.67;;;165.63;;
50585;SDS011;36542;51.700;8.846;2023-02-23T10:39:46;446.10;;;173.83;;
50585;SDS011;36542;51.700;8.846;2023-02-23T10:42:16;512.60;;;181.60;;
50585;SDS011;36542;51.700;8.846;2023-02-23T10:44:45;551.07;;;183.37;;
50585;SDS011;36542;51.700;8.846;2023-02-23T10:47:15;575.87;;;184.67;;
50585;SDS011;36542;51.700;8.846;2023-02-23T10:49:44;677.67;;;209.13;;
50585;SDS011;36542;51.700;8.846;2023-02-23T10:52:13;613.47;;;190.93;;
50585;SDS011;36542;51.700;8.846;2023-02-23T10:54:43;572.20;;;188.37;;
50585;SDS011;36542;51.700;8.846;2023-02-23T10:57:12;550.67;;;185.67;;
50585;SDS011;36542;51.700;8.846;2023-02-23T11:02:32;412.70;;;161.07;;
50585;SDS011;36542;51.700;8.846;2023-02-23T11:05:00;392.67;;;157.87;;
50585;SDS011;36542;51.700;8.846;2023-02-23T11:07:28;285.07;;;137.90;;
50585;SDS011;36542;51.700;8.846;2023-02-23T11:09:55;295.43;;;136.30;;
50585;SDS011;36542;51.700;8.846;2023-02-23T11:14:59;271.30;;;128.80;;
50585;SDS011;36542;51.700;8.846;2023-02-23T11:17:55;275.17;;;129.03;;
50585;SDS011;36542;51.700;8.846;2023-02-23T11:25:47;236.73;;;111.13;;
50585;SDS011;36542;51.700;8.846;2023-02-23T11:28:19;227.23;;;110.67;;
50585;SDS011;36542;51.700;8.846;2023-02-23T11:30:57;250.90;;;116.83;;
50585;SDS011;36542;51.700;8.846;2023-02-23T11:33:29;270.63;;;120.30;;
50585;SDS011;36542;51.700;8.846;2023-02-23T11:36:12;245.23;;;114.53;;
50585;SDS011;36542;51.700;8.846;2023-02-23T11:38:55;189.40;;;104.40;;
50585;SDS011;36542;51.700;8.846;2023-02-23T11:41:30;182.30;;;102.43;;
50585;SDS011;36542;51.700;8.846;2023-02-23T11:43:59;164.73;;;97.80;;
50585;SDS011;36542;51.700;8.846;2023-02-23T11:46:26;153.00;;;92.83;;
50585;SDS011;36542;51.700;8.846;2023-02-23T11:48:57;145.83;;;86.43;;
50585;SDS011;36542;51.700;8.846;2023-02-23T11:51:32;155.70;;;89.77;;
50585;SDS011;36542;51.700;8.846;2023-02-23T11:54:03;139.17;;;86.03;;
50585;SDS011;36542;51.700;8.846;2023-02-23T11:56:31;136.90;;;86.63;;
50585;SDS011;36542;51.700;8.846;2023-02-23T12:01:44;140.63;;;83.63;;
50585;SDS011;36542;51.700;8.846;2023-02-23T12:04:27;125.30;;;80.07;;
50585;SDS011;36542;51.700;8.846;2023-02-23T12:07:17;130.50;;;82.43;;
50585;SDS011;36542;51.700;8.846;2023-02-23T12:09:53;185.43;;;93.57;;
50585;SDS011;36542;51.700;8.846;2023-02-23T12:12:24;181.70;;;93.77;;
50585;SDS011;36542;51.700;8.846;2023-02-23T12:14:58;158.07;;;88.00;;
50585;SDS011;36542;51.700;8.846;2023-02-23T12:17:46;242.33;;;99.53;;
50585;SDS011;36542;51.700;8.846;2023-02-23T12:20:36;191.47;;;95.33;;
50585;SDS011;36542;51.700;8.846;2023-02-23T12:23:07;294.07;;;115.23;;
50585;SDS011;36542;51.700;8.846;2023-02-23T12:25:45;205.70;;;104.77;;
50585;SDS011;36542;51.700;8.846;2023-02-23T12:31:03;210.33;;;106.80;;
50585;SDS011;36542;51.700;8.846;2023-02-23T12:33:43;212.73;;;108.50;;
50585;SDS011;36542;51.700;8.846;2023-02-23T12:38:47;184.07;;;98.40;;
50585;SDS011;36542;51.700;8.846;2023-02-23T12:44:07;211.57;;;105.50;;
50585;SDS011;36542;51.700;8.846;2023-02-23T12:46:38;191.17;;;103.00;;
50585;SDS011;36542;51.700;8.846;2023-02-23T12:49:15;205.03;;;105.77;;
50585;SDS011;36542;51.700;8.846;2023-02-23T12:51:57;186.23;;;98.30;;
50585;SDS011;36542;51.700;8.846;2023-02-23T12:54:30;170.60;;;94.73;;
50585;SDS011;36542;51.700;8.846;2023-02-23T12:57:06;157.03;;;92.00;;
50585;SDS011;36542;51.700;8.846;2023-02-23T13:08:57;164.40;;;87.23;;
50585;SDS011;36542;51.700;8.846;2023-02-23T13:11:47;174.30;;;90.67;;
50585;SDS011;36542;51.700;8.846;2023-02-23T13:15:16;177.17;;;91.80;;
50585;SDS011;36542;51.700;8.846;2023-02-23T13:17:27;142.33;;;84.27;;
50585;SDS011;36542;51.700;8.846;2023-02-23T13:23:22;183.27;;;92.00;;
50585;SDS011;36542;51.700;8.846;2023-02-23T13:27:52;187.87;;;92.10;;
50585;SDS011;36542;51.700;8.846;2023-02-23T13:30:22;163.23;;;88.13;;
50585;SDS011;36542;51.700;8.846;2023-02-23T13:32:47;166.87;;;86.37;;
50585;SDS011;36542;51.700;8.846;2023-02-23T13:35:14;152.63;;;81.70;;
50585;SDS011;36542;51.700;8.846;2023-02-23T13:40:28;152.03;;;80.07;;
50585;SDS011;36542;51.700;8.846;2023-02-23T13:56:23;184.37;;;90.70;;
50585;SDS011;36542;51.700;8.846;2023-02-23T13:58:51;186.90;;;90.13;;
50585;SDS011;36542;51.700;8.846;2023-02-23T14:01:28;175.17;;;84.90;;
50585;SDS011;36542;51.700;8.846;2023-02-23T14:04:01;178.73;;;85.00;;
50585;SDS011;36542;51.700;8.846;2023-02-23T14:06:29;165.93;;;84.20;;
50585;SDS011;36542;51.700;8.846;2023-02-23T14:09:07;166.50;;;84.63;;
50585;SDS011;36542;51.700;8.846;2023-02-23T14:11:51;183.53;;;86.03;;
50585;SDS011;36542;51.700;8.846;2023-02-23T14:14:46;134.63;;;72.90;;
50585;SDS011;36542;51.700;8.846;2023-02-23T14:19:43;150.87;;;77.50;;
50585;SDS011;36542;51.700;8.846;2023-02-23T14:22:29;159.50;;;74.30;;
50585;SDS011;36542;51.700;8.846;2023-02-23T14:27:57;146.20;;;74.40;;
50585;SDS011;36542;51.700;8.846;2023-02-23T14:30:26;162.83;;;77.57;;
50585;SDS011;36542;51.700;8.846;2023-02-23T14:33:07;165.13;;;76.40;;
50585;SDS011;36542;51.700;8.846;2023-02-23T14:36:01;157.70;;;76.90;;
50585;SDS011;36542;51.700;8.846;2023-02-23T14:41:21;176.90;;;75.73;;
50585;SDS011;36542;51.700;8.846;2023-02-23T14:43:53;171.10;;;77.40;;
50585;SDS011;36542;51.700;8.846;2023-02-23T14:46:46;174.17;;;77.10;;
50585;SDS011;36542;51.700;8.846;2023-02-23T14:49:21;213.40;;;82.97;;
50585;SDS011;36542;51.700;8.846;2023-02-23T14:51:56;177.47;;;74.73;;
50585;SDS011;36542;51.700;8.846;2023-02-23T14:54:37;173.43;;;70.07;;
50585;SDS011;36542;51.700;8.846;2023-02-23T14:57:05;164.00;;;70.87;;
50585;SDS011;36542;51.700;8.846;2023-02-23T14:59:44;178.27;;;72.03;;
50585;SDS011;36542;51.700;8.846;2023-02-23T15:02:17;186.07;;;72.50;;
50585;SDS011;36542;51.700;8.846;2023-02-23T15:04:45;198.47;;;76.73;;
50585;SDS011;36542;51.700;8.846;2023-02-23T15:09:49;173.53;;;67.53;;
50585;SDS011;36542;51.700;8.846;2023-02-23T15:12:22;213.70;;;71.60;;
50585;SDS011;36542;51.700;8.846;2023-02-23T15:14:52;232.07;;;75.33;;
50585;SDS011;36542;51.700;8.846;2023-02-23T15:17:22;219.67;;;75.50;;
50585;SDS011;36542;51.700;8.846;2023-02-23T15:19:52;261.53;;;79.47;;
50585;SDS011;36542;51.700;8.846;2023-02-23T15:22:27;222.83;;;72.37;;
50585;SDS011;36542;51.700;8.846;2023-02-23T15:24:59;198.77;;;68.40;;
50585;SDS011;36542;51.700;8.846;2023-02-23T15:27:35;232.07;;;70.70;;
50585;SDS011;36542;51.700;8.846;2023-02-23T15:32:44;277.50;;;69.13;;
50585;SDS011;36542;51.700;8.846;2023-02-23T15:35:10;223.87;;;64.63;;
50585;SDS011;36542;51.700;8.846;2023-02-23T15:37:46;135.00;;;48.07;;
50585;SDS011;36542;51.700;8.846;2023-02-23T15:40:17;121.10;;;45.00;;
50585;SDS011;36542;51.700;8.846;2023-02-23T15:42:47;164.07;;;48.47;;
50585;SDS011;36542;51.700;8.846;2023-02-23T15:47:54;152.80;;;48.63;;
50585;SDS011;36542;51.700;8.846;2023-02-23T15:50:22;124.87;;;44.53;;
50585;SDS011;36542;51.700;8.846;2023-02-23T15:52:58;150.20;;;44.97;;
50585;SDS011;36542;51.700;8.846;2023-02-23T15:55:36;150.87;;;46.13;;
50585;SDS011;36542;51.700;8.846;2023-02-23T15:58:12;169.87;;;45.13;;
50585;SDS011;36542;51.700;8.846;2023-02-23T16:00:54;166.40;;;44.93;;
50585;SDS011;36542;51.700;8.846;2023-02-23T16:03:28;113.33;;;40.30;;
50585;SDS011;36542;51.700;8.846;2023-02-23T16:06:38;136.80;;;44.70;;
50585;SDS011;36542;51.700;8.846;2023-02-23T16:08:57;229.33;;;51.67;;
50585;SDS011;36542;51.700;8.846;2023-02-23T16:11:30;146.37;;;43.40;;
50585;SDS011;36542;51.700;8.846;2023-02-23T16:14:00;226.67;;;53.13;;
50585;SDS011;36542;51.700;8.846;2023-02-23T16:16:27;211.83;;;52.93;;
50585;SDS011;36542;51.700;8.846;2023-02-23T16:18:54;264.13;;;55.37;;
50585;SDS011;36542;51.700;8.846;2023-02-23T16:21:25;144.47;;;44.57;;
50585;SDS011;36542;51.700;8.846;2023-02-23T16:23:56;167.07;;;45.43;;
50585;SDS011;36542;51.700;8.846;2023-02-23T16:26:27;315.73;;;60.33;;